sensor_id;sensor_type;location;lat;lon;timestamp;P1;durP1;ratioP1;P2;durP2;ratioP2
18881;SDS011;9573;50.948;11.600;2022-09-12T00:01:22;5.30;;;2.47;;
18881;SDS011;9573;50.948;11.600;2022-09-12T00:03:51;4.13;;;2.30;;
18881;SDS011;9573;50.948;11.600;2022-09-12T00:06:20;8.97;;;2.90;;
18881;SDS011;9573;50.948;11.600;2022-09-12T00:08:50;8.10;;;2.73;;
18881;SDS011;9573;50.948;11.600;2022-09-12T00:11:19;6.97;;;2.73;;
18881;SDS011;9573;50.948;11.600;2022-09-12T00:13:47;12.00;;;3.43;;
18881;SDS011;9573;50.948;11.600;2022-09-12T00:16:15;9.63;;;2.40;;
18881;SDS011;9573;50.948;11.600;2022-09-12T00:18:47;11.77;;;3.90;;
18881;SDS011;9573;50.948;11.600;2022-09-12T00:21:15;13.30;;;4.10;;
18881;SDS011;9573;50.948;11.600;2022-09-12T00:23:44;7.73;;;3.33;;
18881;SDS011;9573;50.948;11.600;2022-09-12T00:26:12;7.43;;;2.77;;
18881;SDS011;9573;50.948;11.600;2022-09-12T00:28:39;7.73;;;2.77;;
18881;SDS011;9573;50.948;11.600;2022-09-12T00:31:08;11.17;;;3.20;;
18881;SDS011;9573;50.948;11.600;2022-09-12T00:33:37;5.10;;;2.00;;
18881;SDS011;9573;50.948;11.600;2022-09-12T00:36:07;8.80;;;3.83;;
18881;SDS011;9573;50.948;11.600;2022-09-12T00:38:38;9.80;;;3.07;;
18881;SDS011;9573;50.948;11.600;2022-09-12T00:41:06;7.83;;;3.07;;
18881;SDS011;9573;50.948;11.600;2022-09-12T00:43:38;7.00;;;2.60;;
18881;SDS011;9573;50.948;11.600;2022-09-12T00:46:12;8.33;;;2.70;;
18881;SDS011;9573;50.948;11.600;2022-09-12T00:48:53;10.10;;;2.73;;
18881;SDS011;9573;50.948;11.600;2022-09-12T00:51:25;9.83;;;3.67;;
18881;SDS011;9573;50.948;11.600;2022-09-12T00:53:54;4.50;;;2.53;;
18881;SDS011;9573;50.948;11.600;2022-09-12T00:56:24;9.47;;;3.20;;
18881;SDS011;9573;50.948;11.600;2022-09-12T00:58:54;7.17;;;2.93;;
18881;SDS011;9573;50.948;11.600;2022-09-12T01:01:27;9.83;;;3.10;;
18881;SDS011;9573;50.948;11.600;2022-09-12T01:03:54;9.47;;;3.47;;
18881;SDS011;9573;50.948;11.600;2022-09-12T01:06:23;6.07;;;2.70;;
18881;SDS011;9573;50.948;11.600;2022-09-12T01:08:54;7.13;;;3.03;;
18881;SDS011;9573;50.948;11.600;2022-09-12T01:11:23;7.50;;;2.57;;
18881;SDS011;9573;50.948;11.600;2022-09-12T01:13:50;7.40;;;2.63;;
18881;SDS011;9573;50.948;11.600;2022-09-12T01:16:18;8.60;;;2.43;;
18881;SDS011;9573;50.948;11.600;2022-09-12T01:18:49;13.27;;;3.10;;
18881;SDS011;9573;50.948;11.600;2022-09-12T01:21:34;8.73;;;2.40;;
18881;SDS011;9573;50.948;11.600;2022-09-12T01:24:14;10.30;;;3.00;;
18881;SDS011;9573;50.948;11.600;2022-09-12T01:27:08;6.93;;;2.37;;
18881;SDS011;9573;50.948;11.600;2022-09-12T01:33:08;7.10;;;3.10;;
18881;SDS011;9573;50.948;11.600;2022-09-12T01:36:05;4.67;;;2.53;;
18881;SDS011;9573;50.948;11.600;2022-09-12T01:38:48;8.43;;;2.70;;
18881;SDS011;9573;50.948;11.600;2022-09-12T01:41:24;6.73;;;2.20;;
18881;SDS011;9573;50.948;11.600;2022-09-12T01:43:58;10.33;;;2.67;;
18881;SDS011;9573;50.948;11.600;2022-09-12T01:46:33;6.83;;;2.37;;
18881;SDS011;9573;50.948;11.600;2022-09-12T01:49:10;6.23;;;2.50;;
18881;SDS011;9573;50.948;11.600;2022-09-12T01:51:43;10.10;;;2.87;;
18881;SDS011;9573;50.948;11.600;2022-09-12T01:54:23;6.07;;;2.37;;
18881;SDS011;9573;50.948;11.600;2022-09-12T01:56:57;6.57;;;2.57;;
18881;SDS011;9573;50.948;11.600;2022-09-12T01:59:30;6.90;;;2.40;;
18881;SDS011;9573;50.948;11.600;2022-09-12T02:02:03;7.20;;;2.63;;
18881;SDS011;9573;50.948;11.600;2022-09-12T02:04:37;7.23;;;2.63;;
18881;SDS011;9573;50.948;11.600;2022-09-12T02:07:13;6.87;;;2.53;;
18881;SDS011;9573;50.948;11.600;2022-09-12T02:09:45;2.17;;;1.47;;
18881;SDS011;9573;50.948;11.600;2022-09-12T02:12:17;6.67;;;2.50;;
18881;SDS011;9573;50.948;11.600;2022-09-12T02:14:52;12.30;;;2.77;;
18881;SDS011;9573;50.948;11.600;2022-09-12T02:17:26;3.97;;;2.37;;
18881;SDS011;9573;50.948;11.600;2022-09-12T02:20:04;4.47;;;2.53;;
18881;SDS011;9573;50.948;11.600;2022-09-12T02:22:36;4.93;;;2.03;;
18881;SDS011;9573;50.948;11.600;2022-09-12T02:25:05;8.13;;;2.13;;
18881;SDS011;9573;50.948;11.600;2022-09-12T02:27:36;10.50;;;3.40;;
18881;SDS011;9573;50.948;11.600;2022-09-12T02:30:07;6.73;;;2.27;;
18881;SDS011;9573;50.948;11.600;2022-09-12T02:32:41;5.73;;;2.57;;
18881;SDS011;9573;50.948;11.600;2022-09-12T02:35:15;4.73;;;2.13;;
18881;SDS011;9573;50.948;11.600;2022-09-12T02:37:50;6.90;;;2.53;;
18881;SDS011;9573;50.948;11.600;2022-09-12T02:40:25;6.83;;;3.20;;
18881;SDS011;9573;50.948;11.600;2022-09-12T02:42:53;7.40;;;2.77;;
18881;SDS011;9573;50.948;11.600;2022-09-12T02:45:20;5.63;;;2.20;;
18881;SDS011;9573;50.948;11.600;2022-09-12T02:47:49;6.63;;;2.70;;
18881;SDS011;9573;50.948;11.600;2022-09-12T02:50:21;6.93;;;2.20;;
18881;SDS011;9573;50.948;11.600;2022-09-12T02:52:49;8.17;;;2.50;;
18881;SDS011;9573;50.948;11.600;2022-09-12T02:55:17;13.40;;;3.13;;
18881;SDS011;9573;50.948;11.600;2022-09-12T02:57:45;5.87;;;2.57;;
18881;SDS011;9573;50.948;11.600;2022-09-12T03:00:12;7.20;;;2.80;;
18881;SDS011;9573;50.948;11.600;2022-09-12T03:02:44;9.67;;;3.13;;
18881;SDS011;9573;50.948;11.600;2022-09-12T03:05:49;8.80;;;2.90;;
18881;SDS011;9573;50.948;11.600;2022-09-12T03:08:28;8.33;;;3.13;;
18881;SDS011;9573;50.948;11.600;2022-09-12T03:11:24;9.83;;;3.07;;
18881;SDS011;9573;50.948;11.600;2022-09-12T03:14:31;2.97;;;1.30;;
18881;SDS011;9573;50.948;11.600;2022-09-12T03:17:14;8.43;;;2.57;;
18881;SDS011;9573;50.948;11.600;2022-09-12T03:19:56;4.87;;;2.20;;
18881;SDS011;9573;50.948;11.600;2022-09-12T03:22:30;10.33;;;2.73;;
18881;SDS011;9573;50.948;11.600;2022-09-12T03:25:02;11.87;;;2.60;;
18881;SDS011;9573;50.948;11.600;2022-09-12T03:27:37;5.60;;;1.90;;
18881;SDS011;9573;50.948;11.600;2022-09-12T03:30:10;7.83;;;2.73;;
18881;SDS011;9573;50.948;11.600;2022-09-12T03:32:42;6.60;;;1.73;;
18881;SDS011;9573;50.948;11.600;2022-09-12T03:35:12;3.53;;;2.27;;
18881;SDS011;9573;50.948;11.600;2022-09-12T03:37:41;6.77;;;2.13;;
18881;SDS011;9573;50.948;11.600;2022-09-12T03:40:09;3.77;;;1.80;;
18881;SDS011;9573;50.948;11.600;2022-09-12T03:42:37;3.80;;;1.80;;
18881;SDS011;9573;50.948;11.600;2022-09-12T03:45:05;5.60;;;2.40;;
18881;SDS011;9573;50.948;11.600;2022-09-12T03:47:34;5.10;;;2.43;;
18881;SDS011;9573;50.948;11.600;2022-09-12T03:50:01;9.90;;;2.87;;
18881;SDS011;9573;50.948;11.600;2022-09-12T03:52:31;5.77;;;2.97;;
18881;SDS011;9573;50.948;11.600;2022-09-12T03:54:59;11.83;;;3.03;;
18881;SDS011;9573;50.948;11.600;2022-09-12T03:57:26;8.07;;;2.57;;
18881;SDS011;9573;50.948;11.600;2022-09-12T03:59:53;8.63;;;2.77;;
18881;SDS011;9573;50.948;11.600;2022-09-12T04:02:20;8.27;;;2.83;;
18881;SDS011;9573;50.948;11.600;2022-09-12T04:04:47;8.67;;;2.37;;
18881;SDS011;9573;50.948;11.600;2022-09-12T04:07:14;4.40;;;2.00;;
18881;SDS011;9573;50.948;11.600;2022-09-12T04:09:43;4.50;;;2.00;;
18881;SDS011;9573;50.948;11.600;2022-09-12T04:12:10;4.93;;;2.10;;
18881;SDS011;9573;50.948;11.600;2022-09-12T04:14:38;9.30;;;2.63;;
18881;SDS011;9573;50.948;11.600;2022-09-12T04:17:05;3.53;;;1.97;;
18881;SDS011;9573;50.948;11.600;2022-09-12T04:19:33;6.37;;;2.80;;
18881;SDS011;9573;50.948;11.600;2022-09-12T04:22:00;3.90;;;2.20;;
18881;SDS011;9573;50.948;11.600;2022-09-12T04:24:27;8.07;;;3.17;;
18881;SDS011;9573;50.948;11.600;2022-09-12T04:26:55;8.97;;;2.93;;
18881;SDS011;9573;50.948;11.600;2022-09-12T04:29:24;7.33;;;2.10;;
18881;SDS011;9573;50.948;11.600;2022-09-12T04:31:51;8.07;;;2.70;;
18881;SDS011;9573;50.948;11.600;2022-09-12T04:34:18;3.67;;;2.13;;
18881;SDS011;9573;50.948;11.600;2022-09-12T04:36:46;6.53;;;2.37;;
18881;SDS011;9573;50.948;11.600;2022-09-12T04:39:13;3.33;;;1.47;;
18881;SDS011;9573;50.948;11.600;2022-09-12T04:41:41;8.03;;;3.07;;
18881;SDS011;9573;50.948;11.600;2022-09-12T04:44:11;7.80;;;2.63;;
18881;SDS011;9573;50.948;11.600;2022-09-12T04:46:40;5.97;;;2.83;;
18881;SDS011;9573;50.948;11.600;2022-09-12T04:49:10;6.60;;;2.13;;
18881;SDS011;9573;50.948;11.600;2022-09-12T04:51:40;8.23;;;3.03;;
18881;SDS011;9573;50.948;11.600;2022-09-12T04:54:10;7.53;;;2.80;;
18881;SDS011;9573;50.948;11.600;2022-09-12T04:56:39;10.30;;;2.73;;
18881;SDS011;9573;50.948;11.600;2022-09-12T04:59:10;6.83;;;2.33;;
18881;SDS011;9573;50.948;11.600;2022-09-12T05:01:38;9.27;;;3.17;;
18881;SDS011;9573;50.948;11.600;2022-09-12T05:04:06;11.27;;;3.57;;
18881;SDS011;9573;50.948;11.600;2022-09-12T05:06:35;7.33;;;1.90;;
18881;SDS011;9573;50.948;11.600;2022-09-12T05:09:03;10.27;;;2.57;;
18881;SDS011;9573;50.948;11.600;2022-09-12T05:11:33;6.57;;;2.13;;
18881;SDS011;9573;50.948;11.600;2022-09-12T05:14:03;8.13;;;1.97;;
18881;SDS011;9573;50.948;11.600;2022-09-12T05:16:33;7.93;;;2.87;;
18881;SDS011;9573;50.948;11.600;2022-09-12T05:19:00;5.40;;;1.83;;
18881;SDS011;9573;50.948;11.600;2022-09-12T05:21:27;5.80;;;2.43;;
18881;SDS011;9573;50.948;11.600;2022-09-12T05:23:55;8.97;;;2.63;;
18881;SDS011;9573;50.948;11.600;2022-09-12T05:26:24;12.00;;;3.40;;
18881;SDS011;9573;50.948;11.600;2022-09-12T05:28:51;10.47;;;3.87;;
18881;SDS011;9573;50.948;11.600;2022-09-12T05:31:20;6.70;;;2.50;;
18881;SDS011;9573;50.948;11.600;2022-09-12T05:33:51;8.83;;;3.07;;
18881;SDS011;9573;50.948;11.600;2022-09-12T05:36:24;6.97;;;3.37;;
18881;SDS011;9573;50.948;11.600;2022-09-12T05:38:53;5.10;;;2.73;;
18881;SDS011;9573;50.948;11.600;2022-09-12T05:41:21;7.37;;;2.67;;
18881;SDS011;9573;50.948;11.600;2022-09-12T05:43:50;10.43;;;2.33;;
18881;SDS011;9573;50.948;11.600;2022-09-12T05:46:19;12.07;;;3.80;;
18881;SDS011;9573;50.948;11.600;2022-09-12T05:48:48;4.53;;;2.33;;
18881;SDS011;9573;50.948;11.600;2022-09-12T05:51:19;10.50;;;3.80;;
18881;SDS011;9573;50.948;11.600;2022-09-12T05:53:50;7.37;;;2.57;;
18881;SDS011;9573;50.948;11.600;2022-09-12T05:56:20;8.70;;;3.37;;
18881;SDS011;9573;50.948;11.600;2022-09-12T05:58:51;8.97;;;2.70;;
18881;SDS011;9573;50.948;11.600;2022-09-12T06:01:20;6.40;;;2.50;;
18881;SDS011;9573;50.948;11.600;2022-09-12T06:03:49;11.10;;;3.23;;
18881;SDS011;9573;50.948;11.600;2022-09-12T06:06:19;9.10;;;4.07;;
18881;SDS011;9573;50.948;11.600;2022-09-12T06:08:49;5.17;;;2.23;;
18881;SDS011;9573;50.948;11.600;2022-09-12T06:11:19;11.20;;;3.13;;
18881;SDS011;9573;50.948;11.600;2022-09-12T06:13:48;2.93;;;1.80;;
18881;SDS011;9573;50.948;11.600;2022-09-12T06:16:17;5.83;;;1.77;;
18881;SDS011;9573;50.948;11.600;2022-09-12T06:18:46;8.57;;;2.50;;
18881;SDS011;9573;50.948;11.600;2022-09-12T06:21:19;2.17;;;0.80;;
18881;SDS011;9573;50.948;11.600;2022-09-12T06:23:47;4.23;;;1.80;;
18881;SDS011;9573;50.948;11.600;2022-09-12T06:26:18;4.07;;;1.97;;
18881;SDS011;9573;50.948;11.600;2022-09-12T06:28:48;6.23;;;1.93;;
18881;SDS011;9573;50.948;11.600;2022-09-12T06:31:17;3.07;;;1.83;;
18881;SDS011;9573;50.948;11.600;2022-09-12T06:33:47;6.23;;;2.00;;
18881;SDS011;9573;50.948;11.600;2022-09-12T06:36:16;4.70;;;1.77;;
18881;SDS011;9573;50.948;11.600;2022-09-12T06:38:46;2.80;;;1.60;;
18881;SDS011;9573;50.948;11.600;2022-09-12T06:41:14;3.50;;;1.70;;
18881;SDS011;9573;50.948;11.600;2022-09-12T06:43:42;5.70;;;1.83;;
18881;SDS011;9573;50.948;11.600;2022-09-12T06:46:09;3.73;;;1.67;;
18881;SDS011;9573;50.948;11.600;2022-09-12T06:48:37;5.23;;;2.23;;
18881;SDS011;9573;50.948;11.600;2022-09-12T06:51:05;2.30;;;1.63;;
18881;SDS011;9573;50.948;11.600;2022-09-12T06:53:38;1.80;;;0.90;;
18881;SDS011;9573;50.948;11.600;2022-09-12T06:56:08;5.70;;;2.30;;
18881;SDS011;9573;50.948;11.600;2022-09-12T06:58:38;4.17;;;2.10;;
18881;SDS011;9573;50.948;11.600;2022-09-12T07:01:07;1.90;;;1.47;;
18881;SDS011;9573;50.948;11.600;2022-09-12T07:03:37;2.20;;;1.57;;
18881;SDS011;9573;50.948;11.600;2022-09-12T07:06:05;5.07;;;2.37;;
18881;SDS011;9573;50.948;11.600;2022-09-12T07:08:35;5.53;;;1.50;;
18881;SDS011;9573;50.948;11.600;2022-09-12T07:11:11;4.00;;;2.17;;
18881;SDS011;9573;50.948;11.600;2022-09-12T07:13:41;2.83;;;1.53;;
18881;SDS011;9573;50.948;11.600;2022-09-12T07:16:10;3.80;;;1.47;;
18881;SDS011;9573;50.948;11.600;2022-09-12T07:18:38;4.87;;;2.30;;
18881;SDS011;9573;50.948;11.600;2022-09-12T07:21:06;5.20;;;2.00;;
18881;SDS011;9573;50.948;11.600;2022-09-12T07:23:36;0.83;;;0.73;;
18881;SDS011;9573;50.948;11.600;2022-09-12T07:26:06;1.33;;;1.03;;
18881;SDS011;9573;50.948;11.600;2022-09-12T07:28:37;1.70;;;1.43;;
18881;SDS011;9573;50.948;11.600;2022-09-12T07:31:05;1.87;;;1.17;;
18881;SDS011;9573;50.948;11.600;2022-09-12T07:33:34;1.40;;;1.10;;
18881;SDS011;9573;50.948;11.600;2022-09-12T07:36:02;4.20;;;2.07;;
18881;SDS011;9573;50.948;11.600;2022-09-12T07:38:32;3.13;;;1.60;;
18881;SDS011;9573;50.948;11.600;2022-09-12T07:41:00;1.30;;;1.10;;
18881;SDS011;9573;50.948;11.600;2022-09-12T07:43:37;3.03;;;1.47;;
18881;SDS011;9573;50.948;11.600;2022-09-12T07:46:04;1.43;;;1.00;;
18881;SDS011;9573;50.948;11.600;2022-09-12T07:48:32;3.43;;;2.00;;
18881;SDS011;9573;50.948;11.600;2022-09-12T07:50:59;1.70;;;0.97;;
18881;SDS011;9573;50.948;11.600;2022-09-12T07:53:30;2.37;;;1.40;;
18881;SDS011;9573;50.948;11.600;2022-09-12T07:55:59;2.17;;;0.93;;
18881;SDS011;9573;50.948;11.600;2022-09-12T07:58:27;0.93;;;0.60;;
18881;SDS011;9573;50.948;11.600;2022-09-12T08:01:01;2.90;;;1.40;;
18881;SDS011;9573;50.948;11.600;2022-09-12T08:03:29;2.73;;;1.00;;
18881;SDS011;9573;50.948;11.600;2022-09-12T08:06:01;1.00;;;1.00;;
18881;SDS011;9573;50.948;11.600;2022-09-12T08:08:30;2.40;;;1.90;;
18881;SDS011;9573;50.948;11.600;2022-09-12T08:10:57;1.30;;;1.20;;
18881;SDS011;9573;50.948;11.600;2022-09-12T08:13:24;2.43;;;0.53;;
18881;SDS011;9573;50.948;11.600;2022-09-12T08:15:55;1.53;;;0.83;;
18881;SDS011;9573;50.948;11.600;2022-09-12T08:18:25;1.00;;;0.77;;
18881;SDS011;9573;50.948;11.600;2022-09-12T08:20:56;3.23;;;1.73;;
18881;SDS011;9573;50.948;11.600;2022-09-12T08:23:24;0.57;;;0.50;;
18881;SDS011;9573;50.948;11.600;2022-09-12T08:25:54;2.57;;;1.63;;
18881;SDS011;9573;50.948;11.600;2022-09-12T08:28:22;1.10;;;1.00;;
18881;SDS011;9573;50.948;11.600;2022-09-12T08:30:49;4.97;;;1.50;;
18881;SDS011;9573;50.948;11.600;2022-09-12T08:33:16;1.27;;;0.90;;
18881;SDS011;9573;50.948;11.600;2022-09-12T08:35:46;2.80;;;1.53;;
18881;SDS011;9573;50.948;11.600;2022-09-12T08:38:13;1.50;;;1.07;;
18881;SDS011;9573;50.948;11.600;2022-09-12T08:40:42;0.60;;;0.60;;
18881;SDS011;9573;50.948;11.600;2022-09-12T08:43:19;1.03;;;0.50;;
18881;SDS011;9573;50.948;11.600;2022-09-12T08:45:58;4.13;;;1.70;;
18881;SDS011;9573;50.948;11.600;2022-09-12T08:48:33;1.90;;;1.67;;
18881;SDS011;9573;50.948;11.600;2022-09-12T08:51:02;1.17;;;1.10;;
18881;SDS011;9573;50.948;11.600;2022-09-12T08:53:30;1.40;;;0.87;;
18881;SDS011;9573;50.948;11.600;2022-09-12T08:56:01;0.43;;;0.43;;
18881;SDS011;9573;50.948;11.600;2022-09-12T08:58:34;2.87;;;0.97;;
18881;SDS011;9573;50.948;11.600;2022-09-12T09:01:06;0.70;;;0.70;;
18881;SDS011;9573;50.948;11.600;2022-09-12T09:03:49;0.57;;;0.30;;
18881;SDS011;9573;50.948;11.600;2022-09-12T09:06:41;0.80;;;0.80;;
18881;SDS011;9573;50.948;11.600;2022-09-12T09:09:30;0.63;;;0.37;;
18881;SDS011;9573;50.948;11.600;2022-09-12T09:12:14;0.60;;;0.60;;
18881;SDS011;9573;50.948;11.600;2022-09-12T09:14:52;0.35;;;0.35;;
18881;SDS011;9573;50.948;11.600;2022-09-12T09:17:50;0.28;;;0.28;;
18881;SDS011;9573;50.948;11.600;2022-09-12T09:20:22;0.30;;;0.30;;
18881;SDS011;9573;50.948;11.600;2022-09-12T09:22:59;0.88;;;0.60;;
18881;SDS011;9573;50.948;11.600;2022-09-12T09:25:37;0.40;;;0.40;;
18881;SDS011;9573;50.948;11.600;2022-09-12T09:28:15;2.13;;;0.55;;
18881;SDS011;9573;50.948;11.600;2022-09-12T09:30:47;2.05;;;1.25;;
18881;SDS011;9573;50.948;11.600;2022-09-12T09:33:17;2.20;;;0.80;;
18881;SDS011;9573;50.948;11.600;2022-09-12T09:35:49;1.17;;;1.02;;
18881;SDS011;9573;50.948;11.600;2022-09-12T09:38:30;0.90;;;0.65;;
18881;SDS011;9573;50.948;11.600;2022-09-12T09:41:18;1.88;;;0.93;;
18881;SDS011;9573;50.948;11.600;2022-09-12T09:43:58;0.98;;;0.70;;
18881;SDS011;9573;50.948;11.600;2022-09-12T09:46:26;0.20;;;0.20;;
18881;SDS011;9573;50.948;11.600;2022-09-12T09:48:54;0.30;;;0.30;;
18881;SDS011;9573;50.948;11.600;2022-09-12T09:51:25;0.28;;;0.28;;
18881;SDS011;9573;50.948;11.600;2022-09-12T09:53:56;0.45;;;0.45;;
18881;SDS011;9573;50.948;11.600;2022-09-12T09:56:28;0.52;;;0.52;;
18881;SDS011;9573;50.948;11.600;2022-09-12T09:59:07;0.50;;;0.50;;
18881;SDS011;9573;50.948;11.600;2022-09-12T10:01:36;0.38;;;0.20;;
18881;SDS011;9573;50.948;11.600;2022-09-12T10:04:15;0.38;;;0.38;;
18881;SDS011;9573;50.948;11.600;2022-09-12T10:06:45;2.85;;;1.00;;
18881;SDS011;9573;50.948;11.600;2022-09-12T10:09:21;1.85;;;1.02;;
18881;SDS011;9573;50.948;11.600;2022-09-12T10:11:51;0.30;;;0.30;;
18881;SDS011;9573;50.948;11.600;2022-09-12T10:14:26;0.82;;;0.82;;
18881;SDS011;9573;50.948;11.600;2022-09-12T10:19:53;4.97;;;1.27;;
18881;SDS011;9573;50.948;11.600;2022-09-12T10:22:21;0.45;;;0.45;;
18881;SDS011;9573;50.948;11.600;2022-09-12T10:24:54;1.23;;;1.02;;
18881;SDS011;9573;50.948;11.600;2022-09-12T10:27:25;1.20;;;0.80;;
18881;SDS011;9573;50.948;11.600;2022-09-12T10:29:59;0.32;;;0.32;;
18881;SDS011;9573;50.948;11.600;2022-09-12T10:32:33;0.43;;;0.43;;
18881;SDS011;9573;50.948;11.600;2022-09-12T10:35:05;0.15;;;0.15;;
18881;SDS011;9573;50.948;11.600;2022-09-12T10:37:48;2.28;;;1.10;;
18881;SDS011;9573;50.948;11.600;2022-09-12T10:40:23;0.57;;;0.40;;
18881;SDS011;9573;50.948;11.600;2022-09-12T10:42:53;1.33;;;0.60;;
18881;SDS011;9573;50.948;11.600;2022-09-12T10:45:23;0.60;;;0.60;;
18881;SDS011;9573;50.948;11.600;2022-09-12T10:47:54;0.40;;;0.40;;
18881;SDS011;9573;50.948;11.600;2022-09-12T10:50:35;0.60;;;0.60;;
18881;SDS011;9573;50.948;11.600;2022-09-12T10:53:13;0.47;;;0.47;;
18881;SDS011;9573;50.948;11.600;2022-09-12T10:55:54;0.75;;;0.75;;
18881;SDS011;9573;50.948;11.600;2022-09-12T10:58:39;0.80;;;0.35;;
18881;SDS011;9573;50.948;11.600;2022-09-12T11:01:28;0.60;;;0.60;;
18881;SDS011;9573;50.948;11.600;2022-09-12T11:04:18;0.57;;;0.57;;
18881;SDS011;9573;50.948;11.600;2022-09-12T11:06:56;0.68;;;0.68;;
18881;SDS011;9573;50.948;11.600;2022-09-12T11:09:48;0.57;;;0.55;;
18881;SDS011;9573;50.948;11.600;2022-09-12T11:12:25;0.60;;;0.60;;
18881;SDS011;9573;50.948;11.600;2022-09-12T11:15:07;1.92;;;0.82;;
18881;SDS011;9573;50.948;11.600;2022-09-12T11:17:55;1.73;;;0.93;;
18881;SDS011;9573;50.948;11.600;2022-09-12T11:20:36;0.57;;;0.40;;
18881;SDS011;9573;50.948;11.600;2022-09-12T11:26:43;2.17;;;0.45;;
18881;SDS011;9573;50.948;11.600;2022-09-12T11:29:27;0.25;;;0.17;;
18881;SDS011;9573;50.948;11.600;2022-09-12T11:32:14;1.35;;;0.50;;
18881;SDS011;9573;50.948;11.600;2022-09-12T11:35:26;0.00;;;0.00;;
18881;SDS011;9573;50.948;11.600;2022-09-12T11:38:03;0.32;;;0.32;;
18881;SDS011;9573;50.948;11.600;2022-09-12T11:41:14;0.75;;;0.73;;
18881;SDS011;9573;50.948;11.600;2022-09-12T11:43:49;0.80;;;0.32;;
18881;SDS011;9573;50.948;11.600;2022-09-12T11:46:23;0.30;;;0.30;;
18881;SDS011;9573;50.948;11.600;2022-09-12T11:48:56;1.65;;;0.50;;
18881;SDS011;9573;50.948;11.600;2022-09-12T11:51:32;0.43;;;0.43;;
18881;SDS011;9573;50.948;11.600;2022-09-12T11:54:14;0.30;;;0.30;;
18881;SDS011;9573;50.948;11.600;2022-09-12T11:56:48;0.15;;;0.15;;
18881;SDS011;9573;50.948;11.600;2022-09-12T11:59:34;0.20;;;0.20;;
18881;SDS011;9573;50.948;11.600;2022-09-12T12:02:11;0.30;;;0.30;;
18881;SDS011;9573;50.948;11.600;2022-09-12T12:04:53;0.20;;;0.20;;
18881;SDS011;9573;50.948;11.600;2022-09-12T12:07:28;0.28;;;0.20;;
18881;SDS011;9573;50.948;11.600;2022-09-12T12:10:04;0.52;;;0.20;;
18881;SDS011;9573;50.948;11.600;2022-09-12T12:12:33;0.13;;;0.13;;
18881;SDS011;9573;50.948;11.600;2022-09-12T12:15:01;0.57;;;0.50;;
18881;SDS011;9573;50.948;11.600;2022-09-12T12:17:30;1.13;;;0.82;;
18881;SDS011;9573;50.948;11.600;2022-09-12T12:19:58;0.47;;;0.35;;
18881;SDS011;9573;50.948;11.600;2022-09-12T12:22:28;1.85;;;0.90;;
18881;SDS011;9573;50.948;11.600;2022-09-12T12:25:02;0.55;;;0.55;;
18881;SDS011;9573;50.948;11.600;2022-09-12T12:27:47;0.32;;;0.32;;
18881;SDS011;9573;50.948;11.600;2022-09-12T12:33:51;0.20;;;0.20;;
18881;SDS011;9573;50.948;11.600;2022-09-12T12:36:47;1.65;;;0.90;;
18881;SDS011;9573;50.948;11.600;2022-09-12T12:48:57;0.52;;;0.30;;
18881;SDS011;9573;50.948;11.600;2022-09-12T12:51:42;0.10;;;0.10;;
18881;SDS011;9573;50.948;11.600;2022-09-12T12:54:29;0.40;;;0.40;;
18881;SDS011;9573;50.948;11.600;2022-09-12T12:57:00;0.20;;;0.20;;
18881;SDS011;9573;50.948;11.600;2022-09-12T12:59:30;0.40;;;0.40;;
18881;SDS011;9573;50.948;11.600;2022-09-12T13:01:58;0.73;;;0.73;;
18881;SDS011;9573;50.948;11.600;2022-09-12T13:04:27;1.55;;;0.57;;
18881;SDS011;9573;50.948;11.600;2022-09-12T13:06:59;0.22;;;0.22;;
18881;SDS011;9573;50.948;11.600;2022-09-12T13:09:31;0.30;;;0.30;;
18881;SDS011;9573;50.948;11.600;2022-09-12T13:12:04;0.73;;;0.63;;
18881;SDS011;9573;50.948;11.600;2022-09-12T13:14:47;2.65;;;0.90;;
18881;SDS011;9573;50.948;11.600;2022-09-12T13:17:33;0.77;;;0.35;;
18881;SDS011;9573;50.948;11.600;2022-09-12T13:20:06;0.88;;;0.80;;
18881;SDS011;9573;50.948;11.600;2022-09-12T13:22:45;1.37;;;1.10;;
18881;SDS011;9573;50.948;11.600;2022-09-12T13:25:22;0.93;;;0.77;;
18881;SDS011;9573;50.948;11.600;2022-09-12T13:27:57;1.13;;;0.80;;
18881;SDS011;9573;50.948;11.600;2022-09-12T13:30:27;2.47;;;0.57;;
18881;SDS011;9573;50.948;11.600;2022-09-12T13:33:05;1.67;;;1.10;;
18881;SDS011;9573;50.948;11.600;2022-09-12T13:35:52;3.07;;;0.80;;
18881;SDS011;9573;50.948;11.600;2022-09-12T13:38:52;0.50;;;0.43;;
18881;SDS011;9573;50.948;11.600;2022-09-12T13:41:45;1.27;;;0.63;;
18881;SDS011;9573;50.948;11.600;2022-09-12T13:44:49;0.33;;;0.30;;
18881;SDS011;9573;50.948;11.600;2022-09-12T13:47:20;0.40;;;0.40;;
18881;SDS011;9573;50.948;11.600;2022-09-12T13:49:53;0.47;;;0.47;;
18881;SDS011;9573;50.948;11.600;2022-09-12T13:52:24;1.70;;;0.43;;
18881;SDS011;9573;50.948;11.600;2022-09-12T13:54:56;1.80;;;0.70;;
18881;SDS011;9573;50.948;11.600;2022-09-12T13:57:28;0.57;;;0.57;;
18881;SDS011;9573;50.948;11.600;2022-09-12T13:59:59;0.80;;;0.57;;
18881;SDS011;9573;50.948;11.600;2022-09-12T14:02:32;0.70;;;0.70;;
18881;SDS011;9573;50.948;11.600;2022-09-12T14:05:09;0.87;;;0.87;;
18881;SDS011;9573;50.948;11.600;2022-09-12T14:07:42;0.70;;;0.60;;
18881;SDS011;9573;50.948;11.600;2022-09-12T14:10:21;2.63;;;0.60;;
18881;SDS011;9573;50.948;11.600;2022-09-12T14:12:54;1.40;;;1.00;;
18881;SDS011;9573;50.948;11.600;2022-09-12T14:15:23;0.37;;;0.37;;
18881;SDS011;9573;50.948;11.600;2022-09-12T14:17:53;0.50;;;0.50;;
18881;SDS011;9573;50.948;11.600;2022-09-12T14:20:26;0.40;;;0.40;;
18881;SDS011;9573;50.948;11.600;2022-09-12T14:22:59;0.47;;;0.40;;
18881;SDS011;9573;50.948;11.600;2022-09-12T14:25:31;0.73;;;0.73;;
18881;SDS011;9573;50.948;11.600;2022-09-12T14:28:02;1.00;;;0.57;;
18881;SDS011;9573;50.948;11.600;2022-09-12T14:30:30;0.50;;;0.40;;
18881;SDS011;9573;50.948;11.600;2022-09-12T14:35:45;1.23;;;0.87;;
18881;SDS011;9573;50.948;11.600;2022-09-12T14:41:10;1.83;;;0.73;;
18881;SDS011;9573;50.948;11.600;2022-09-12T14:43:49;1.10;;;0.60;;
18881;SDS011;9573;50.948;11.600;2022-09-12T14:46:21;1.37;;;0.60;;
18881;SDS011;9573;50.948;11.600;2022-09-12T14:48:54;0.23;;;0.23;;
18881;SDS011;9573;50.948;11.600;2022-09-12T14:51:26;1.60;;;0.70;;
18881;SDS011;9573;50.948;11.600;2022-09-12T14:53:59;2.37;;;1.00;;
18881;SDS011;9573;50.948;11.600;2022-09-12T14:56:36;0.73;;;0.60;;
18881;SDS011;9573;50.948;11.600;2022-09-12T14:59:24;0.80;;;0.80;;
18881;SDS011;9573;50.948;11.600;2022-09-12T15:02:14;0.57;;;0.57;;
18881;SDS011;9573;50.948;11.600;2022-09-12T15:04:51;1.33;;;0.50;;
18881;SDS011;9573;50.948;11.600;2022-09-12T15:07:21;0.30;;;0.30;;
18881;SDS011;9573;50.948;11.600;2022-09-12T15:10:00;1.07;;;0.80;;
18881;SDS011;9573;50.948;11.600;2022-09-12T15:12:29;0.30;;;0.30;;
18881;SDS011;9573;50.948;11.600;2022-09-12T15:14:57;0.30;;;0.30;;
18881;SDS011;9573;50.948;11.600;2022-09-12T15:17:32;0.20;;;0.20;;
18881;SDS011;9573;50.948;11.600;2022-09-12T15:19:59;0.83;;;0.40;;
18881;SDS011;9573;50.948;11.600;2022-09-12T15:22:27;0.50;;;0.50;;
18881;SDS011;9573;50.948;11.600;2022-09-12T15:24:55;0.57;;;0.57;;
18881;SDS011;9573;50.948;11.600;2022-09-12T15:27:23;1.50;;;0.30;;
18881;SDS011;9573;50.948;11.600;2022-09-12T15:29:51;2.90;;;0.97;;
18881;SDS011;9573;50.948;11.600;2022-09-12T15:32:21;0.63;;;0.63;;
18881;SDS011;9573;50.948;11.600;2022-09-12T15:34:49;1.93;;;0.83;;
18881;SDS011;9573;50.948;11.600;2022-09-12T15:37:16;0.87;;;0.70;;
18881;SDS011;9573;50.948;11.600;2022-09-12T15:39:45;0.20;;;0.20;;
18881;SDS011;9573;50.948;11.600;2022-09-12T15:42:13;1.10;;;0.50;;
18881;SDS011;9573;50.948;11.600;2022-09-12T15:44:44;0.37;;;0.37;;
18881;SDS011;9573;50.948;11.600;2022-09-12T15:47:11;0.30;;;0.30;;
18881;SDS011;9573;50.948;11.600;2022-09-12T15:49:39;1.63;;;0.80;;
18881;SDS011;9573;50.948;11.600;2022-09-12T15:52:08;0.30;;;0.30;;